Time;durP1;ratioP1;P1;durP2;ratioP2;P2;SDS_P1;SDS_P2;PMS_P1;PMS_P2;Temp;Humidity;BMP_temperature;BMP_pressure;BME280_temperature;BME280_humidity;BME280_pressure;Samples;Min_cycle;Max_cycle;Signal;HPM_P1;HPM_P2
2021/03/30 00:01:05;;;;;;;7.10;5.80;;;12.00;75.20;;;;;;5114204;28;20951;-85
2021/03/30 00:03:31;;;;;;;8.47;6.20;;;12.00;76.20;;;;;;5122215;28;20516;-84
2021/03/30 00:05:56;;;;;;;8.90;6.53;;;11.90;76.10;;;;;;5094691;28;20415;-83
2021/03/30 00:08:23;;;;;;;11.67;7.10;;;12.00;76.50;;;;;;5119907;28;20215;-85
2021/03/30 00:10:49;;;;;;;8.37;6.57;;;12.10;75.00;;;;;;5105559;28;20436;-84
2021/03/30 00:13:15;;;;;;;7.13;6.13;;;12.10;75.60;;;;;;5123030;28;20172;-84
2021/03/30 00:15:40;;;;;;;11.93;6.73;;;12.10;76.20;;;;;;5112321;27;20179;-85
2021/03/30 00:18:07;;;;;;;11.93;7.10;;;12.00;76.70;;;;;;5086034;28;20192;-83
2021/03/30 00:20:33;;;;;;;9.50;7.20;;;12.00;77.10;;;;;;5102423;28;20236;-84
2021/03/30 00:22:59;;;;;;;9.53;6.37;;;11.90;77.40;;;;;;5121994;28;20452;-83
2021/03/30 00:25:24;;;;;;;8.43;6.37;;;12.00;77.30;;;;;;5107422;28;20318;-85
2021/03/30 00:27:50;;;;;;;11.43;7.60;;;12.00;77.20;;;;;;5088243;28;20216;-85
2021/03/30 00:30:17;;;;;;;11.47;6.90;;;11.90;77.80;;;;;;5121502;28;20202;-86
2021/03/30 00:32:42;;;;;;;8.47;6.43;;;11.80;78.10;;;;;;5122730;28;20192;-87
2021/03/30 00:35:09;;;;;;;13.10;6.90;;;11.80;78.70;;;;;;5106342;28;20416;-85
2021/03/30 00:37:36;;;;;;;11.20;7.30;;;11.70;78.70;;;;;;5126464;28;20183;-83
2021/03/30 00:40:07;;;;;;;10.93;7.17;;;11.70;79.00;;;;;;5126997;28;20418;-86
2021/03/30 00:42:33;;;;;;;9.13;5.77;;;11.70;79.30;;;;;;5107573;28;20434;-81
2021/03/30 00:44:59;;;;;;;9.00;7.10;;;11.60;79.20;;;;;;5120888;28;20446;-85
2021/03/30 00:47:27;;;;;;;11.30;7.10;;;11.50;78.60;;;;;;5087593;28;20947;-81
2021/03/30 00:49:54;;;;;;;9.23;7.07;;;11.50;78.40;;;;;;5086603;28;20433;-81
2021/03/30 00:52:21;;;;;;;11.40;6.93;;;11.40;79.10;;;;;;5108447;28;20457;-85
2021/03/30 00:54:48;;;;;;;10.67;6.90;;;11.30;79.20;;;;;;5123709;28;20405;-86
2021/03/30 00:57:16;;;;;;;10.60;6.80;;;11.30;80.00;;;;;;5125719;28;20470;-82
2021/03/30 00:59:42;;;;;;;8.73;6.20;;;11.30;79.50;;;;;;5088810;28;20434;-83
2021/03/30 01:02:08;;;;;;;11.37;6.97;;;11.40;76.80;;;;;;5126646;28;20448;-87
2021/03/30 01:04:34;;;;;;;9.07;6.60;;;11.40;77.20;;;;;;5108653;28;20199;-83
2021/03/30 01:07:01;;;;;;;12.87;7.60;;;11.30;78.40;;;;;;5086340;28;20191;-86
2021/03/30 01:09:32;;;;;;;9.57;6.63;;;11.20;79.30;;;;;;5115124;28;20426;-82
2021/03/30 01:12:07;;;;;;;9.43;6.70;;;11.10;80.50;;;;;;5092417;28;20443;-85
2021/03/30 01:14:51;;;;;;;10.80;6.93;;;11.00;81.20;;;;;;5121087;28;20440;-84
2021/03/30 01:17:54;;;;;;;9.83;7.40;;;10.90;81.90;;;;;;5116512;28;20788;-85
2021/03/30 01:20:25;;;;;;;13.63;7.73;;;10.90;82.30;;;;;;5105210;28;20409;-88
2021/03/30 01:23:35;;;;;;;9.73;7.23;;;10.90;82.70;;;;;;5122955;28;20418;-85
2021/03/30 01:26:19;;;;;;;8.43;6.87;;;10.90;83.90;;;;;;5105353;28;20803;-85
2021/03/30 01:29:00;;;;;;;11.00;7.03;;;10.70;83.50;;;;;;5101922;27;601802;-84
2021/03/30 01:31:31;;;;;;;9.93;7.27;;;10.70;84.70;;;;;;5110310;28;20272;-85
2021/03/30 01:33:58;;;;;;;11.53;6.97;;;10.70;84.80;;;;;;5098581;28;20478;-84
2021/03/30 01:36:27;;;;;;;10.93;7.60;;;10.60;85.50;;;;;;5124463;28;20470;-84
2021/03/30 01:38:53;;;;;;;10.70;7.40;;;10.90;82.20;;;;;;5123972;28;20424;-89
2021/03/30 01:41:22;;;;;;;9.80;7.47;;;11.00;80.60;;;;;;5089458;28;20437;-84
2021/03/30 01:43:49;;;;;;;10.90;7.43;;;11.00;80.80;;;;;;5105286;28;20460;-84
2021/03/30 01:46:15;;;;;;;10.40;6.57;;;10.80;82.90;;;;;;5117742;28;20441;-84
2021/03/30 01:48:43;;;;;;;10.20;6.90;;;10.60;83.60;;;;;;5122747;28;20445;-84
2021/03/30 01:51:11;;;;;;;14.60;7.33;;;10.60;83.40;;;;;;5123172;28;21147;-83
2021/03/30 01:53:41;;;;;;;12.63;6.70;;;10.60;84.30;;;;;;5105601;28;20426;-84
2021/03/30 01:56:08;;;;;;;9.97;7.00;;;10.60;85.10;;;;;;5075276;28;20474;-84
2021/03/30 01:58:36;;;;;;;9.87;7.70;;;10.50;86.00;;;;;;5124452;28;20418;-85
2021/03/30 02:01:02;;;;;;;10.30;6.90;;;10.50;86.70;;;;;;5104346;28;20441;-84
2021/03/30 02:03:28;;;;;;;9.17;7.33;;;10.50;86.70;;;;;;5106568;27;20425;-84
2021/03/30 02:05:56;;;;;;;11.83;7.03;;;10.60;87.60;;;;;;5094593;27;20420;-87
2021/03/30 02:08:23;;;;;;;13.33;8.50;;;10.40;87.40;;;;;;5135686;27;20204;-86
2021/03/30 02:10:52;;;;;;;13.43;7.30;;;10.50;88.30;;;;;;5125296;28;20454;-82
2021/03/30 02:13:33;;;;;;;9.40;7.40;;;10.40;88.30;;;;;;5123466;28;20790;-89
2021/03/30 02:16:07;;;;;;;11.50;8.17;;;10.60;88.20;;;;;;5122635;27;20446;-84
2021/03/30 02:18:57;;;;;;;12.20;8.00;;;10.70;88.00;;;;;;5114869;28;20417;-85
2021/03/30 02:21:32;;;;;;;13.00;8.43;;;10.80;87.40;;;;;;5106465;28;20466;-84
2021/03/30 02:24:01;;;;;;;12.43;8.00;;;10.90;87.90;;;;;;5107269;28;20416;-83
2021/03/30 02:26:29;;;;;;;13.70;7.57;;;10.90;88.90;;;;;;5123371;28;20440;-81
2021/03/30 02:28:58;;;;;;;11.17;7.87;;;10.80;88.20;;;;;;5124953;28;20823;-82
2021/03/30 02:31:27;;;;;;;16.00;7.97;;;10.90;88.70;;;;;;5098352;28;20512;-83
2021/03/30 02:33:55;;;;;;;10.30;7.03;;;10.90;88.90;;;;;;5117767;28;20470;-86
2021/03/30 02:36:26;;;;;;;12.87;7.63;;;10.90;88.90;;;;;;5107345;28;20449;-86
2021/03/30 02:38:54;;;;;;;9.93;7.37;;;10.90;89.60;;;;;;5105415;28;20945;-85
2021/03/30 02:41:21;;;;;;;13.60;8.50;;;10.80;90.00;;;;;;5086459;28;20457;-85
2021/03/30 02:43:48;;;;;;;10.30;7.10;;;10.90;90.00;;;;;;5116499;28;20429;-86
2021/03/30 02:46:16;;;;;;;14.43;8.00;;;10.90;90.10;;;;;;5120998;28;20430;-85
2021/03/30 02:48:43;;;;;;;13.27;8.83;;;11.00;90.20;;;;;;5138414;27;20444;-87
2021/03/30 02:51:10;;;;;;;10.97;7.70;;;10.90;90.30;;;;;;5122307;28;20425;-85
2021/03/30 02:53:37;;;;;;;10.17;7.17;;;10.70;90.30;;;;;;5105527;28;20428;-83
2021/03/30 02:56:05;;;;;;;11.03;7.53;;;10.80;90.40;;;;;;5121296;28;20406;-85
2021/03/30 02:58:32;;;;;;;13.03;8.40;;;10.80;90.70;;;;;;5088252;28;20418;-83
2021/03/30 03:00:59;;;;;;;17.50;8.37;;;10.90;90.70;;;;;;5103538;28;20433;-85
2021/03/30 03:03:26;;;;;;;13.40;8.90;;;10.90;90.80;;;;;;5104549;28;20412;-85
2021/03/30 03:05:53;;;;;;;14.03;8.13;;;10.90;91.10;;;;;;5106191;28;20481;-85
2021/03/30 03:08:20;;;;;;;15.53;9.17;;;10.80;91.30;;;;;;5089313;28;20465;-82
2021/03/30 03:10:46;;;;;;;13.53;8.53;;;10.70;91.20;;;;;;5105908;28;20437;-85
2021/03/30 03:13:16;;;;;;;12.10;8.30;;;10.70;91.20;;;;;;5105977;28;20437;-82
2021/03/30 03:15:43;;;;;;;12.07;8.73;;;10.50;91.60;;;;;;5122143;28;20428;-84
2021/03/30 03:18:10;;;;;;;12.57;8.23;;;10.40;91.80;;;;;;5109232;28;20437;-85
2021/03/30 03:20:37;;;;;;;13.47;8.50;;;10.30;92.00;;;;;;5122702;28;20410;-82
2021/03/30 03:23:04;;;;;;;13.10;8.40;;;10.30;92.50;;;;;;5106452;28;20463;-84
2021/03/30 03:25:30;;;;;;;10.33;7.70;;;10.40;91.00;;;;;;5123342;28;20414;-86
2021/03/30 03:27:59;;;;;;;11.43;8.30;;;10.50;91.30;;;;;;5120830;28;20521;-85
2021/03/30 03:30:26;;;;;;;12.23;8.63;;;10.30;91.80;;;;;;5100075;28;21071;-83
2021/03/30 03:32:52;;;;;;;11.73;8.70;;;10.40;92.20;;;;;;5108733;28;20467;-85
2021/03/30 03:35:18;;;;;;;11.27;8.50;;;10.20;92.40;;;;;;5106844;28;20848;-89
2021/03/30 03:37:45;;;;;;;14.40;9.20;;;10.20;92.90;;;;;;5098774;28;20192;-84
2021/03/30 03:40:12;;;;;;;12.90;8.23;;;10.10;93.10;;;;;;5114664;28;20172;-82
2021/03/30 03:42:39;;;;;;;13.50;8.33;;;10.10;93.10;;;;;;5101118;28;20454;-87
2021/03/30 03:45:07;;;;;;;14.97;9.60;;;10.20;93.50;;;;;;5102635;28;20426;-87
2021/03/30 03:47:32;;;;;;;15.20;8.40;;;10.00;93.60;;;;;;5120959;28;20445;-84
2021/03/30 03:49:58;;;;;;;12.30;7.90;;;9.90;94.60;;;;;;5121658;28;20437;-82
2021/03/30 03:52:25;;;;;;;15.50;9.87;;;9.90;94.80;;;;;;5084358;28;20763;-84
2021/03/30 03:54:56;;;;;;;11.30;8.03;;;9.80;95.10;;;;;;5101153;28;20173;-82
2021/03/30 03:57:27;;;;;;;16.07;9.27;;;9.80;95.10;;;;;;5077915;28;20418;-85
2021/03/30 03:59:53;;;;;;;15.60;10.20;;;9.70;95.50;;;;;;5120807;28;20401;-84
2021/03/30 04:02:27;;;;;;;14.10;9.03;;;9.70;95.60;;;;;;5092671;27;20429;-83
2021/03/30 04:05:06;;;;;;;12.47;8.43;;;9.60;95.90;;;;;;5131197;27;20416;-84
2021/03/30 04:07:38;;;;;;;12.60;8.77;;;9.60;96.10;;;;;;5121569;28;20448;-85
2021/03/30 04:10:07;;;;;;;12.20;9.27;;;9.70;96.40;;;;;;5122480;28;20414;-82
2021/03/30 04:12:34;;;;;;;13.50;8.70;;;9.80;96.60;;;;;;5103525;28;20476;-83
2021/03/30 04:15:00;;;;;;;13.23;8.83;;;9.50;96.70;;;;;;5105643;28;20501;-85
2021/03/30 04:17:26;;;;;;;15.83;9.17;;;9.70;96.90;;;;;;5113136;28;20525;-84
2021/03/30 04:19:52;;;;;;;18.70;9.53;;;9.50;96.70;;;;;;5068505;28;20437;-85
2021/03/30 04:22:18;;;;;;;13.93;8.87;;;9.60;96.90;;;;;;5086504;28;20228;-86
2021/03/30 04:24:44;;;;;;;15.37;9.80;;;9.60;97.00;;;;;;5102844;28;20280;-85
2021/03/30 04:27:11;;;;;;;12.30;9.00;;;9.60;97.00;;;;;;5120531;28;20460;-86
2021/03/30 04:29:38;;;;;;;14.87;8.53;;;9.70;97.20;;;;;;5120550;28;20433;-87
2021/03/30 04:32:04;;;;;;;15.30;9.67;;;9.80;97.20;;;;;;5119575;28;20449;-86
2021/03/30 04:34:30;;;;;;;16.60;10.57;;;9.60;97.30;;;;;;5125981;28;20417;-85
2021/03/30 04:36:56;;;;;;;14.63;10.03;;;9.60;97.40;;;;;;5104783;28;20418;-82
2021/03/30 04:39:21;;;;;;;16.27;9.17;;;9.70;97.60;;;;;;5103222;28;20188;-82
2021/03/30 04:41:58;;;;;;;13.60;9.97;;;9.50;97.70;;;;;;5103901;28;20668;-86
2021/03/30 04:44:24;;;;;;;16.57;10.70;;;9.60;97.70;;;;;;5105111;28;20243;-86
2021/03/30 04:46:50;;;;;;;14.30;9.37;;;9.80;97.70;;;;;;5079068;28;20476;-82
2021/03/30 04:49:15;;;;;;;16.83;9.90;;;9.70;97.70;;;;;;5132921;28;20191;-87
2021/03/30 04:51:41;;;;;;;16.03;9.90;;;9.60;97.60;;;;;;5124381;27;20234;-85
2021/03/30 04:54:07;;;;;;;14.30;9.80;;;9.40;97.80;;;;;;5100200;28;20176;-83
2021/03/30 04:56:36;;;;;;;16.13;9.10;;;9.60;97.90;;;;;;5099904;28;20195;-85
2021/03/30 04:59:02;;;;;;;17.20;10.47;;;9.60;97.70;;;;;;5083759;28;20609;-86
2021/03/30 05:01:27;;;;;;;16.87;9.23;;;9.70;96.80;;;;;;5101855;28;20450;-82
2021/03/30 05:03:53;;;;;;;14.67;8.83;;;9.80;95.90;;;;;;5087041;28;20713;-86
2021/03/30 05:06:20;;;;;;;16.17;9.97;;;9.70;96.20;;;;;;5072462;28;20196;-86
2021/03/30 05:08:45;;;;;;;13.40;9.23;;;9.80;96.80;;;;;;5125895;28;20211;-86
2021/03/30 05:11:11;;;;;;;12.77;9.10;;;9.70;97.00;;;;;;5116853;28;20557;-87
2021/03/30 05:13:37;;;;;;;15.53;9.13;;;9.90;96.80;;;;;;5102343;28;20191;-82
2021/03/30 05:16:03;;;;;;;16.70;10.03;;;9.70;95.90;;;;;;5115054;28;20244;-83
2021/03/30 05:18:29;;;;;;;16.47;9.73;;;9.70;95.80;;;;;;5090778;28;20437;-84
2021/03/30 05:20:54;;;;;;;13.17;8.23;;;9.60;96.20;;;;;;5111961;28;20453;-83
2021/03/30 05:23:20;;;;;;;14.03;9.37;;;9.80;96.60;;;;;;5103240;28;20185;-82
2021/03/30 05:25:46;;;;;;;16.13;8.80;;;9.60;96.70;;;;;;5104846;28;20184;-82
2021/03/30 05:28:11;;;;;;;13.03;9.10;;;9.60;96.70;;;;;;5124122;28;20195;-82
2021/03/30 05:30:37;;;;;;;12.17;8.57;;;9.70;96.10;;;;;;5106721;28;20219;-84
2021/03/30 05:33:03;;;;;;;12.67;8.60;;;9.70;95.90;;;;;;5086905;28;20208;-84
2021/03/30 05:35:29;;;;;;;12.60;8.80;;;9.60;96.20;;;;;;5123747;28;20184;-83
2021/03/30 05:37:55;;;;;;;13.83;8.50;;;9.70;95.90;;;;;;5127368;28;21181;-82
2021/03/30 05:40:21;;;;;;;11.27;8.87;;;9.70;95.70;;;;;;5087492;28;20204;-86
2021/03/30 05:42:47;;;;;;;11.60;9.07;;;9.60;96.10;;;;;;5086715;28;20205;-86
2021/03/30 05:45:16;;;;;;;16.30;8.50;;;9.40;96.80;;;;;;5118584;28;20500;-84
2021/03/30 05:47:42;;;;;;;11.43;8.00;;;9.30;97.70;;;;;;5119253;28;21018;-85
2021/03/30 05:50:13;;;;;;;16.47;9.07;;;9.30;98.10;;;;;;5131099;27;20413;-83
2021/03/30 05:52:48;;;;;;;15.57;8.53;;;9.20;98.10;;;;;;5124319;28;20446;-84
2021/03/30 05:55:27;;;;;;;12.00;7.70;;;9.20;98.70;;;;;;5107465;28;20417;-85
2021/03/30 05:57:55;;;;;;;14.27;9.10;;;9.30;98.90;;;;;;5107196;28;20941;-82
2021/03/30 06:00:27;;;;;;;12.40;9.13;;;9.50;98.60;;;;;;5124174;28;20429;-86
2021/03/30 06:02:55;;;;;;;11.40;8.37;;;9.30;98.80;;;;;;5121323;27;20459;-83
2021/03/30 06:05:23;;;;;;;10.47;8.33;;;9.50;98.70;;;;;;5079714;28;20419;-81
2021/03/30 06:07:51;;;;;;;10.13;7.93;;;9.60;98.40;;;;;;5123779;28;20548;-84
2021/03/30 06:10:20;;;;;;;15.27;8.97;;;9.80;98.90;;;;;;5123686;28;21133;-81
2021/03/30 06:12:46;;;;;;;14.10;9.50;;;9.90;98.80;;;;;;5125671;28;20434;-82
2021/03/30 06:15:12;;;;;;;15.83;9.80;;;10.10;98.10;;;;;;5107361;28;20413;-84
2021/03/30 06:17:49;;;;;;;15.60;9.47;;;10.40;97.90;;;;;;5107679;28;20236;-81
2021/03/30 06:20:35;;;;;;;14.50;8.53;;;10.50;97.70;;;;;;5139562;27;20629;-81
2021/03/30 06:23:05;;;;;;;11.37;8.80;;;10.80;98.00;;;;;;5102941;28;20965;-81
2021/03/30 06:25:34;;;;;;;12.97;9.50;;;11.00;97.60;;;;;;5124310;28;20437;-84
2021/03/30 06:28:17;;;;;;;15.50;10.07;;;11.10;97.60;;;;;;5125836;28;20509;-84
2021/03/30 06:31:07;;;;;;;12.87;9.07;;;11.50;96.70;;;;;;5124786;28;20429;-84
2021/03/30 06:33:46;;;;;;;12.00;8.53;;;11.90;96.00;;;;;;5099235;28;20746;-84
2021/03/30 06:36:16;;;;;;;15.60;9.53;;;12.20;95.70;;;;;;5109726;28;20424;-82
2021/03/30 06:38:54;;;;;;;10.67;8.37;;;12.50;94.50;;;;;;5122645;28;20802;-81
2021/03/30 06:44:47;;;;;;;15.40;9.93;;;13.10;94.20;;;;;;5123733;28;20418;-82
2021/03/30 06:47:13;;;;;;;15.60;9.73;;;13.50;93.10;;;;;;5116995;28;20867;-84
2021/03/30 06:49:58;;;;;;;16.00;10.47;;;14.00;91.30;;;;;;5125119;27;20421;-82
2021/03/30 06:52:29;;;;;;;19.33;10.63;;;14.40;90.20;;;;;;5124730;27;20950;-85
2021/03/30 06:55:01;;;;;;;15.47;10.13;;;14.70;90.30;;;;;;5102982;28;20422;-81
2021/03/30 06:57:47;;;;;;;16.93;11.00;;;14.90;89.50;;;;;;5122917;28;20409;-81
2021/03/30 07:00:19;;;;;;;17.57;10.57;;;15.20;87.40;;;;;;5124052;28;20420;-85
2021/03/30 07:02:52;;;;;;;19.10;10.70;;;15.50;85.80;;;;;;5122151;28;20468;-85
2021/03/30 07:05:34;;;;;;;17.70;11.37;;;15.70;85.00;;;;;;5115411;27;20500;-82
2021/03/30 07:08:08;;;;;;;15.53;10.67;;;15.90;83.70;;;;;;5104591;28;20448;-85
2021/03/30 07:10:40;;;;;;;19.00;12.33;;;16.00;82.80;;;;;;5090791;28;21000;-84
2021/03/30 07:13:08;;;;;;;22.00;12.60;;;16.20;81.70;;;;;;5086252;28;20430;-81
2021/03/30 07:15:33;;;;;;;20.20;12.40;;;16.30;81.20;;;;;;5120145;28;20413;-84
2021/03/30 07:18:27;;;;;;;20.57;13.00;;;16.40;80.50;;;;;;5118279;28;20486;-84
2021/03/30 07:21:04;;;;;;;17.40;11.87;;;16.40;81.00;;;;;;5129809;27;20362;-82
2021/03/30 07:23:34;;;;;;;21.33;12.17;;;16.30;83.60;;;;;;5123881;27;20437;-80
2021/03/30 07:26:11;;;;;;;21.87;12.70;;;16.30;83.60;;;;;;5120774;28;20985;-84
2021/03/30 07:29:03;;;;;;;21.03;12.40;;;16.50;84.40;;;;;;5122062;27;20461;-82
2021/03/30 07:31:40;;;;;;;19.30;11.70;;;16.60;82.60;;;;;;5106169;28;20495;-85
2021/03/30 07:34:11;;;;;;;20.57;11.70;;;16.80;82.20;;;;;;5121714;27;20498;-85
2021/03/30 07:36:47;;;;;;;18.53;12.20;;;16.90;80.90;;;;;;5104736;28;21021;-85
2021/03/30 07:39:17;;;;;;;19.30;11.43;;;16.80;79.50;;;;;;5120195;28;20547;-85
2021/03/30 07:41:44;;;;;;;19.83;13.00;;;16.70;80.10;;;;;;5098403;28;21000;-83
2021/03/30 07:44:10;;;;;;;21.80;13.33;;;16.90;80.60;;;;;;5103887;28;20413;-82
2021/03/30 07:46:37;;;;;;;20.03;12.60;;;17.10;78.00;;;;;;5122924;28;20414;-84
2021/03/30 07:49:04;;;;;;;23.93;13.13;;;17.10;78.30;;;;;;5102054;28;20529;-81
2021/03/30 07:51:40;;;;;;;21.93;12.97;;;17.30;77.40;;;;;;5104810;28;20442;-85
2021/03/30 07:54:07;;;;;;;22.40;13.33;;;17.60;77.40;;;;;;5109458;28;20406;-84
2021/03/30 07:56:39;;;;;;;21.87;13.27;;;17.60;77.20;;;;;;5120255;28;20406;-85
2021/03/30 07:59:06;;;;;;;23.40;13.70;;;17.70;75.70;;;;;;5121184;28;20873;-86
2021/03/30 08:01:34;;;;;;;19.67;12.37;;;17.90;75.30;;;;;;5086512;28;20433;-86
2021/03/30 08:04:01;;;;;;;20.07;12.60;;;18.00;75.20;;;;;;5105693;27;20437;-85
2021/03/30 08:06:28;;;;;;;19.77;12.63;;;18.00;75.10;;;;;;5126397;27;20907;-84
2021/03/30 08:09:00;;;;;;;22.40;12.70;;;18.20;74.80;;;;;;5118203;28;20471;-85
2021/03/30 08:11:38;;;;;;;24.07;13.73;;;18.10;74.00;;;;;;5120278;28;20433;-84
2021/03/30 08:14:38;;;;;;;22.87;13.87;;;18.20;73.40;;;;;;5099262;28;20406;-82
2021/03/30 08:17:07;;;;;;;24.17;14.70;;;18.20;75.10;;;;;;5117269;28;20420;-85
2021/03/30 08:19:33;;;;;;;20.33;13.50;;;18.30;74.00;;;;;;5101232;28;20434;-86
2021/03/30 08:22:07;;;;;;;25.03;16.93;;;18.30;74.50;;;;;;5130431;27;20952;-82
2021/03/30 08:24:45;;;;;;;23.03;14.20;;;18.40;74.60;;;;;;5123512;27;20413;-84
2021/03/30 08:27:35;;;;;;;23.20;15.00;;;18.40;73.90;;;;;;5102724;28;20470;-85
2021/03/30 08:30:36;;;;;;;28.10;14.87;;;18.20;71.30;;;;;;5109514;28;20491;-85
2021/03/30 08:33:05;;;;;;;24.97;14.70;;;18.20;72.20;;;;;;5115042;28;20428;-83
2021/03/30 08:35:32;;;;;;;25.00;15.70;;;18.20;71.50;;;;;;5119190;28;20422;-85
2021/03/30 08:37:59;;;;;;;25.70;15.77;;;18.30;71.00;;;;;;5120247;28;20406;-85
2021/03/30 08:40:37;;;;;;;22.07;14.30;;;18.30;71.00;;;;;;5119071;28;20406;-85
2021/03/30 08:43:14;;;;;;;24.33;16.03;;;18.40;72.60;;;;;;5120134;28;20441;-84
2021/03/30 08:46:00;;;;;;;22.93;15.10;;;18.40;71.20;;;;;;5101622;28;20808;-85
2021/03/30 08:48:43;;;;;;;25.37;15.43;;;18.40;72.00;;;;;;5120838;28;20489;-84
2021/03/30 08:51:15;;;;;;;25.20;16.07;;;18.40;71.90;;;;;;5117598;28;20422;-84
2021/03/30 08:53:41;;;;;;;21.70;14.73;;;18.40;70.10;;;;;;5121604;28;20424;-82
2021/03/30 08:56:09;;;;;;;27.63;16.53;;;18.40;69.70;;;;;;5102928;28;20416;-85
2021/03/30 08:58:42;;;;;;;23.43;14.40;;;18.30;69.40;;;;;;5106145;28;20482;-85
2021/03/30 09:01:08;;;;;;;25.80;15.80;;;18.30;70.10;;;;;;5123333;28;20500;-85
2021/03/30 09:03:34;;;;;;;25.30;15.20;;;18.40;70.40;;;;;;5123126;28;20434;-83
2021/03/30 09:06:00;;;;;;;21.63;14.27;;;18.50;70.50;;;;;;5118390;27;20175;-87
2021/03/30 09:08:40;;;;;;;28.07;15.60;;;18.50;70.50;;;;;;5094158;28;20519;-85
2021/03/30 09:11:17;;;;;;;23.67;15.40;;;18.70;69.60;;;;;;5116646;28;20212;-85
2021/03/30 09:13:59;;;;;;;23.93;14.90;;;18.80;70.80;;;;;;5122875;28;20416;-85
2021/03/30 09:16:25;;;;;;;21.90;14.70;;;19.00;67.40;;;;;;5124934;28;20415;-86
2021/03/30 09:18:52;;;;;;;24.57;15.57;;;18.90;66.40;;;;;;5086482;28;20436;-84
2021/03/30 09:21:25;;;;;;;23.33;13.97;;;19.00;66.70;;;;;;5122970;27;20460;-83
2021/03/30 09:23:55;;;;;;;24.00;14.93;;;19.20;66.00;;;;;;5124304;27;20849;-83
2021/03/30 09:26:28;;;;;;;23.40;14.33;;;19.40;63.80;;;;;;5124701;27;20424;-85
2021/03/30 09:28:55;;;;;;;23.33;14.77;;;19.50;65.30;;;;;;5103291;28;20982;-82
2021/03/30 09:31:20;;;;;;;22.00;13.90;;;19.50;61.20;;;;;;5106234;28;20469;-85
2021/03/30 09:33:47;;;;;;;20.47;13.70;;;19.70;61.90;;;;;;5101647;28;20430;-84
2021/03/30 09:36:13;;;;;;;18.30;13.00;;;19.90;60.40;;;;;;5121924;27;20187;-82
2021/03/30 09:38:53;;;;;;;18.53;12.60;;;20.30;62.50;;;;;;5109827;28;20434;-83
2021/03/30 09:41:35;;;;;;;21.07;13.17;;;20.60;61.30;;;;;;5107023;28;20456;-85
2021/03/30 09:44:01;;;;;;;23.43;12.40;;;20.90;56.50;;;;;;5120382;28;20414;-82
2021/03/30 09:46:27;;;;;;;20.33;12.03;;;20.90;54.10;;;;;;5122746;28;20422;-82
2021/03/30 09:48:54;;;;;;;20.20;11.90;;;21.30;53.60;;;;;;5084995;28;20515;-84
2021/03/30 09:51:20;;;;;;;17.30;12.20;;;21.50;52.80;;;;;;5110912;27;20523;-83
2021/03/30 09:53:46;;;;;;;13.30;9.83;;;21.80;52.60;;;;;;5111532;28;20417;-86
2021/03/30 09:56:20;;;;;;;15.30;10.17;;;22.10;51.20;;;;;;5106176;28;20937;-85
2021/03/30 09:58:46;;;;;;;15.07;10.00;;;22.30;49.20;;;;;;5101310;28;20699;-84
2021/03/30 10:01:11;;;;;;;16.63;10.53;;;22.60;50.30;;;;;;5097113;28;20540;-86
2021/03/30 10:03:38;;;;;;;14.70;9.90;;;22.60;51.70;;;;;;5106035;28;20192;-85
2021/03/30 10:06:19;;;;;;;14.20;9.93;;;22.50;46.70;;;;;;5107046;27;20222;-82
2021/03/30 10:08:46;;;;;;;14.90;10.67;;;22.40;48.10;;;;;;5105412;28;20461;-85
2021/03/30 10:11:13;;;;;;;15.97;10.87;;;22.50;49.20;;;;;;5122000;28;20461;-85
2021/03/30 10:13:40;;;;;;;17.60;11.03;;;22.70;47.30;;;;;;5122680;28;20478;-82
2021/03/30 10:16:08;;;;;;;15.73;11.43;;;22.90;48.30;;;;;;5122849;28;20465;-85
2021/03/30 10:18:35;;;;;;;17.13;11.00;;;23.00;50.00;;;;;;5122420;28;20422;-84
2021/03/30 10:21:11;;;;;;;22.97;11.40;;;22.80;47.70;;;;;;5118566;27;20428;-82
2021/03/30 10:23:51;;;;;;;20.80;12.20;;;22.90;48.60;;;;;;5111498;28;20420;-86
2021/03/30 10:26:21;;;;;;;19.77;12.50;;;22.70;48.60;;;;;;5121757;28;20413;-84
2021/03/30 10:28:52;;;;;;;22.67;12.33;;;22.90;48.30;;;;;;5088452;28;20841;-85
2021/03/30 10:31:48;;;;;;;18.07;11.93;;;23.30;47.40;;;;;;5122327;28;20456;-85
2021/03/30 10:34:24;;;;;;;18.20;12.07;;;23.40;47.50;;;;;;5106878;28;20414;-86
2021/03/30 10:36:56;;;;;;;17.93;12.30;;;23.20;48.00;;;;;;5117202;28;20444;-85
2021/03/30 10:39:34;;;;;;;16.93;10.43;;;23.40;47.40;;;;;;5087848;28;20426;-84
2021/03/30 10:42:02;;;;;;;21.10;12.20;;;23.40;48.40;;;;;;5123035;28;20432;-86
2021/03/30 10:44:37;;;;;;;19.83;13.30;;;23.60;47.30;;;;;;5121788;28;20425;-83
2021/03/30 10:47:24;;;;;;;17.93;11.93;;;23.40;47.70;;;;;;5116740;28;20919;-83
2021/03/30 10:49:51;;;;;;;20.50;13.03;;;23.50;48.30;;;;;;5123017;28;20421;-84
2021/03/30 10:52:23;;;;;;;21.37;12.87;;;23.60;47.80;;;;;;5102747;28;20441;-83
2021/03/30 10:54:51;;;;;;;17.93;11.10;;;23.60;45.70;;;;;;5129289;27;20410;-84
2021/03/30 10:57:19;;;;;;;16.63;11.03;;;23.80;44.70;;;;;;5123121;28;20406;-84
2021/03/30 10:59:45;;;;;;;16.90;11.00;;;23.80;43.30;;;;;;5099490;28;20455;-84
2021/03/30 11:02:13;;;;;;;18.13;11.80;;;23.80;44.50;;;;;;5119580;28;20490;-85
2021/03/30 11:04:42;;;;;;;17.43;10.90;;;24.00;43.90;;;;;;5100583;28;20414;-84
2021/03/30 11:07:09;;;;;;;19.13;12.03;;;24.00;42.50;;;;;;5121160;27;20420;-84
2021/03/30 11:09:36;;;;;;;15.30;10.20;;;23.90;43.90;;;;;;5085500;28;20454;-84
2021/03/30 11:12:02;;;;;;;15.00;10.20;;;24.10;45.00;;;;;;5099347;28;20433;-84
2021/03/30 11:14:27;;;;;;;15.10;10.73;;;24.30;45.50;;;;;;5077891;28;20415;-83
2021/03/30 11:16:53;;;;;;;15.30;10.47;;;24.30;42.60;;;;;;5120721;28;20180;-84
2021/03/30 11:19:20;;;;;;;17.77;10.30;;;24.30;43.00;;;;;;5113027;28;20198;-83
2021/03/30 11:21:46;;;;;;;14.20;10.87;;;24.40;42.50;;;;;;5105130;28;20497;-83
2021/03/30 11:24:16;;;;;;;16.50;11.43;;;24.20;44.00;;;;;;5090957;28;20423;-83
2021/03/30 11:26:44;;;;;;;16.63;12.20;;;24.50;44.10;;;;;;5110234;28;20466;-82
2021/03/30 11:29:15;;;;;;;18.17;13.00;;;24.40;43.10;;;;;;5093800;28;20526;-83
2021/03/30 11:37:03;;;;;;;15.13;11.50;;;24.30;41.10;;;;;;5097099;27;20456;-83
2021/03/30 11:39:29;;;;;;;15.40;10.43;;;24.50;42.70;;;;;;5111420;28;20425;-83
2021/03/30 11:41:55;;;;;;;19.33;12.70;;;24.60;41.90;;;;;;5109366;28;20471;-83
2021/03/30 11:44:20;;;;;;;16.30;11.53;;;24.70;41.50;;;;;;5109999;28;20183;-82
2021/03/30 11:46:46;;;;;;;16.00;10.53;;;24.60;41.10;;;;;;5072526;28;20199;-83
2021/03/30 11:49:12;;;;;;;17.83;11.90;;;24.60;42.80;;;;;;5109342;28;20221;-83
2021/03/30 11:51:37;;;;;;;15.83;11.80;;;24.60;42.40;;;;;;5083954;28;20208;-84
2021/03/30 11:54:03;;;;;;;16.47;12.73;;;24.70;42.90;;;;;;5092008;28;20226;-82
2021/03/30 11:56:29;;;;;;;16.13;12.43;;;24.70;42.10;;;;;;5072517;28;20180;-82
2021/03/30 11:58:54;;;;;;;15.77;11.37;;;24.70;43.20;;;;;;5108966;28;20219;-82
2021/03/30 12:01:20;;;;;;;18.80;11.10;;;24.70;42.40;;;;;;5109645;28;20218;-82
2021/03/30 12:03:46;;;;;;;16.40;11.43;;;24.60;42.10;;;;;;5109565;28;20668;-82
2021/03/30 12:06:12;;;;;;;17.03;12.10;;;24.50;41.10;;;;;;5072670;28;20195;-82
2021/03/30 12:08:37;;;;;;;19.87;13.53;;;24.50;41.20;;;;;;5086903;28;20212;-82
2021/03/30 12:11:03;;;;;;;16.77;11.80;;;24.40;41.00;;;;;;5081820;28;20184;-83
2021/03/30 12:13:30;;;;;;;16.30;12.27;;;24.40;41.80;;;;;;5110551;28;20201;-82
2021/03/30 12:15:56;;;;;;;18.30;13.03;;;24.50;42.90;;;;;;5109683;28;20802;-83
2021/03/30 12:18:21;;;;;;;15.93;12.10;;;24.60;40.90;;;;;;5089131;28;20421;-83
2021/03/30 12:20:47;;;;;;;20.60;12.40;;;24.60;40.70;;;;;;5108168;28;20820;-83
2021/03/30 12:23:13;;;;;;;17.37;11.80;;;24.50;41.60;;;;;;5088364;28;20197;-82
2021/03/30 12:25:39;;;;;;;18.40;12.00;;;24.50;40.80;;;;;;5101919;28;20182;-83
2021/03/30 12:28:04;;;;;;;18.37;12.30;;;24.50;42.50;;;;;;5092684;28;20206;-82
2021/03/30 12:30:32;;;;;;;17.03;10.80;;;24.70;41.10;;;;;;5092445;28;20632;-83
2021/03/30 12:32:57;;;;;;;18.17;12.67;;;24.60;40.80;;;;;;5096687;28;20242;-82
2021/03/30 12:35:23;;;;;;;20.33;11.57;;;24.60;40.90;;;;;;5092890;28;20453;-83
2021/03/30 12:37:49;;;;;;;19.17;11.37;;;24.60;40.60;;;;;;5097450;28;20187;-84
2021/03/30 12:40:15;;;;;;;17.73;11.70;;;24.40;39.50;;;;;;5114715;27;20425;-83
2021/03/30 12:42:41;;;;;;;18.60;12.63;;;24.40;40.40;;;;;;5092635;28;20212;-82
2021/03/30 12:45:07;;;;;;;17.27;11.77;;;24.50;39.70;;;;;;5106074;28;20830;-83
2021/03/30 12:47:33;;;;;;;17.20;12.00;;;24.40;40.10;;;;;;5100934;28;20752;-82
2021/03/30 12:49:59;;;;;;;15.97;11.40;;;24.20;40.50;;;;;;5079190;28;20426;-82
2021/03/30 12:52:24;;;;;;;17.93;12.13;;;24.40;42.50;;;;;;5092283;28;20687;-82
2021/03/30 12:54:51;;;;;;;17.63;11.97;;;24.50;41.60;;;;;;5092816;28;20472;-83
2021/03/30 12:57:17;;;;;;;16.30;11.50;;;24.40;41.10;;;;;;5089807;28;20227;-83